Terminal Aerodrome Forecast
Issued by NWS Cleveland, OH

Home | Current Version | Previous Version | Text Only | Print | Product List | Glossary Off
Versions: 1 2 3 4 5 6 7 8 9 10 11 12 13 14 15 16 17 18 19 20 21 22 23 24

000
FTUS41 KCLE 211700 CCA
TAFYNG
TAF COR
KYNG 211758Z 2118/2218 28015G25KT P6SM VCSH SCT025 BKN040
     FM212300 28015G25KT P6SM SCT025 BKN035
      TEMPO 2201/2204 4SM -TSRA BKN015 OVC025CB
     FM220400 31010KT P6SM VCSH SCT009 OVC015=

USA.gov is the U.S. government's official web portal to all federal, state and local government web resources and services.